SBOSBO BIA / LFKB
Speedbird OnlineSpeedbird Online BIA / LFKB

Bastia-Poretta Airport
01:11 15.3°C

Location Bastia, France
Latitude: 42.55270004272461
Longitude: 9.48373031616211
Local Time 01:11 on 26 May 2024
UTC +2 hours (Europe/Paris)
Currency £1 equals EUR 1.17
METAR LFKB 252230Z AUTO 20005KT CAVOK 15/12 Q1018 NOSIG
TAF TAF LFKB 252000Z 2521/2621 VRB02KT CAVOK TX25/2612Z TN13/2604Z BECMG 2610/2612 14010KT BECMG 2616/2618 08004KT
Weather As Of 26 May 2024 01:11
Description Clear sky
Wind 9 km/h from South (200°)
Cloud Cover 0%
Precipitation Rain: none, Snow: none
Sunrise 05:50
Sunset 20:47
NOTAM 1 active NOTAM
Web Wikipedia
Codes IATA: BIA
ICAO: LFKB
Altitude 8 Meter / 26 Feet
Distance 1,220 KM / 758 Miles
from London.
Runways
RunwayLength (m)Surface
162519Asphalt
342519Asphalt
Radio
TypeDescriptionFrequency
AFISBASTIA INFO124.725
APPBASTIA RADAR APP123.825
ARRBASTIA APP37.85
ATISBASTIA ATIS125.925
GNDGND121.825
TWRBASTIA TWR118
Live ATC



Support Speedbird Online

© 2017-2024 Speedbird Online